• Join FlightAware (Why Join?)
  • Login
  • US Flag 
02:56AM EDT


 

Airport Tracker/Info


-or-


 

Live Flight TrackerFlight Track Log ✈ SWA760 ✈ 25-Apr-2013 ✈ KSLC - KSEA

Flight Track Log - Related Links

Times and Time Zones

All times are in EDT time to prevent confusion due to time zone crossing. See the SWA760 flight status page for this flight to view local times or setup timezone preferences in your user account.

Time Position Orientation Groundspeed Altitude Reporting Facility
EDT Latitude Longitude Course Direction KTS MPH feet Rate Location/Type
07:23PM 40.8042 -112.0000 311° West 161 185 5,000  Level Salt Lake Center
07:24PM 40.8164 -112.0186 311° West 166 191 5,800 1,800 Climbing Salt Lake Center
07:25PM 40.8303 -112.0606 294° West 201 231 7,000 2,160 Climbing Salt Lake Center
07:25PM 40.8422 -112.0947 295° West 233 268 8,000 3,060 Climbing Salt Lake Center
07:26PM 40.8625 -112.1414 300° West 244 281 10,200 3,360 Climbing Salt Lake Center
07:27PM 40.8972 -112.2278 298° West 263 303 13,900 3,360 Climbing Salt Lake Center
07:28PM 40.9603 -112.2975 320° Northwest 300 345 17,100 2,820 Climbing Salt Lake Center
07:29PM 41.0269 -112.3725 320° Northwest 318 366 19,700 2,700 Climbing Salt Lake Center
07:30PM 41.1044 -112.4550 321° Northwest 355 409 22,700 3,060 Climbing Salt Lake Center
07:31PM 41.2056 -112.5444 326° Northwest 366 421 26,100 2,280 Climbing Salt Lake Center
07:32PM 41.2903 -112.6353 321° Northwest 393 452 27,400 1,560 Climbing Salt Lake Center
07:33PM 41.3686 -112.7511 312° West 417 480 29,400 1,920 Climbing Salt Lake Center
07:34PM 41.4492 -112.8703 312° West 433 498 31,400 2,100 Climbing Salt Lake Center
07:35PM 41.5247 -112.9900 310° West 425 489 33,800 1,980 Climbing Salt Lake Center
07:36PM 41.6008 -113.1072 311° West 419 482 35,500 1,500 Climbing Salt Lake Center
07:37PM 41.6811 -113.2256 312° West 429 494 36,900 1,560 Climbing Salt Lake Center
07:38PM 41.7728 -113.3711 310° West 427 491 38,700 1,500 Climbing Salt Lake Center
07:39PM 41.8500 -113.4894 311° West 423 487 40,000 600 Climbing Salt Lake Center
07:40PM 41.9244 -113.6078 310° West 418 481 40,000  Level Salt Lake Center
07:41PM 41.9997 -113.7247 311° West 415 478 40,000  Level Salt Lake Center
07:42PM 42.0764 -113.8428 311° West 420 483 40,000  Level Salt Lake Center
07:43PM 42.1600 -113.9756 310° West 421 484 40,000  Level Salt Lake Center
07:44PM 42.2269 -114.0803 311° West 415 478 40,000  Level Salt Lake Center
07:45PM 42.3167 -114.2292 309° West 426 490 40,000  Level Salt Lake Center
07:46PM 42.3922 -114.3500 310° West 421 484 40,000  Level Salt Lake Center
07:47PM 42.4664 -114.4681 310° West 412 474 40,000  Level Salt Lake Center
07:48PM 42.5478 -114.5769 315° West 410 472 40,000  Level Salt Lake Center
07:49PM 42.6317 -114.6856 316° Northwest 413 475 40,000  Level Salt Lake Center
07:50PM 42.7306 -114.8125 317° Northwest 414 476 40,000  Level Salt Lake Center
07:51PM 42.8103 -114.9169 316° Northwest 416 479 40,000  Level Salt Lake Center
07:52PM 42.8903 -115.0186 317° Northwest 413 475 40,000  Level Salt Lake Center
07:53PM 42.9842 -115.1414 316° Northwest 416 479 40,000  Level Salt Lake Center
07:54PM 43.0647 -115.2461 316° Northwest 417 480 40,000  Level Salt Lake Center
07:55PM 43.1564 -115.3681 316° Northwest 409 471 40,000  Level Salt Lake Center
07:57PM 43.2347 -115.4706 316° Northwest 407 468 40,000  Level Salt Lake Center
07:58PM 43.3261 -115.5931 316° Northwest 410 472 40,000  Level Salt Lake Center
07:59PM 43.4050 -115.6983 316° Northwest 410 472 40,000  Level Salt Lake Center
08:00PM 43.4972 -115.8219 316° Northwest 413 475 40,000  Level Salt Lake Center
08:01PM 43.5758 -115.9264 316° Northwest 409 471 40,000  Level Salt Lake Center
08:02PM 43.6528 -116.0306 316° Northwest 405 466 40,000  Level Salt Lake Center
08:03PM 43.7431 -116.1522 316° Northwest 404 465 40,000  Level Salt Lake Center
08:04PM 43.8206 -116.2572 316° Northwest 405 466 40,000  Level Salt Lake Center
08:05PM 43.9106 -116.3783 316° Northwest 403 464 40,000  Level Salt Lake Center
08:06PM 43.9864 -116.4836 315° West 401 461 40,000  Level Salt Lake Center
08:07PM 44.0744 -116.6047 315° West 396 456 40,000  Level Salt Lake Center
08:08PM 44.1503 -116.7094 315° West 396 456 40,000  Level Salt Lake Center
08:09PM 44.2269 -116.8153 315° West 401 461 40,000  Level Salt Lake Center
08:10PM 44.3150 -116.9375 315° West 400 460 40,000  Level Salt Lake Center
08:11PM 44.3875 -117.0386 315° West 387 445 40,000  Level Salt Lake Center
08:12PM 44.4733 -117.1586 315° West 389 448 40,000  Level Salt Lake Center
08:13PM 44.5453 -117.2617 314° West 387 445 40,000  Level Salt Lake Center
08:14PM 44.6289 -117.3808 315° West 382 440 40,000  Level Salt Lake Center
08:15PM 44.7025 -117.4814 316° Northwest 383 441 40,000  Level Salt Lake Center
08:16PM 44.7739 -117.5839 314° West 383 441 40,000  Level Salt Lake Center
08:17PM 44.8561 -117.7031 314° West 381 438 40,000  Level Salt Lake Center
08:18PM 44.9269 -117.8053 314° West 380 437 40,000  Level Salt Lake Center
08:19PM 45.0100 -117.9247 315° West 380 437 40,000  Level Salt Lake Center
08:19PM 45.0219 -117.9408 316° Northwest 381 438 40,000  Level Seattle Center
08:20PM 45.1022 -118.0606 314° West 377 434 40,000  Level Seattle Center
08:21PM 45.1742 -118.1614 315° West 378 435 40,000  Level Seattle Center
08:23PM 45.2447 -118.2658 314° West 381 438 40,000  Level Seattle Center
08:24PM 45.3264 -118.3875 314° West 383 441 40,000  Level Seattle Center
08:25PM 45.3975 -118.4911 314° West 382 440 40,000  Level Seattle Center
08:26PM 45.4742 -118.6025 314° West 380 437 40,000  Level Seattle Center
08:27PM 45.5461 -118.7094 314° West 376 433 40,000  Level Seattle Center
08:28PM 45.6183 -118.8175 314° West 376 433 40,000  Level Seattle Center
08:29PM 45.6897 -118.9250 314° West 375 432 40,000  Level Seattle Center
08:30PM 45.7575 -119.0389 310° West 376 433 40,000  Level Seattle Center
08:31PM 45.8261 -119.1542 311° West 379 436 40,000  Level Seattle Center
08:32PM 45.8919 -119.2669 310° West 373 429 40,000  Level Seattle Center
08:33PM 45.9603 -119.3825 310° West 377 434 40,000  Level Seattle Center
08:34PM 46.0283 -119.4986 310° West 379 436 40,000  Level Seattle Center
08:36PM 46.1625 -119.7319 310° West 378 435 40,000  Level Seattle Center
08:37PM 46.2436 -119.8708 310° West 378 435 40,000  Level Seattle Center
08:38PM 46.3097 -119.9869 310° West 376 433 40,000 -600 Level Seattle Center
08:39PM 46.3775 -120.1053 310° West 381 438 38,900 -1,800 Descending Seattle Center
08:40PM 46.4425 -120.2194 310° West 370 426 36,400 -2,700 Descending Seattle Center
08:41PM 46.5081 -120.3356 309° West 371 427 33,500 -2,760 Descending Seattle Center
08:42PM 46.5747 -120.4561 309° West 376 433 30,900 -2,460 Descending Seattle Center
08:43PM 46.6369 -120.5858 305° West 385 443 28,500 -2,160 Descending Seattle Center
08:44PM 46.6967 -120.7111 305° West 379 436 26,600 -2,100 Descending Seattle Center
08:45PM 46.7569 -120.8369 305° West 379 436 24,300 -2,340 Descending Seattle Center
08:46PM 46.8117 -120.9561 304° West 373 429 21,900 -2,580 Descending Seattle Center
08:47PM 46.8806 -121.0994 305° West 364 419 19,100 -2,520 Descending Seattle Center
08:48PM 46.9369 -121.2197 305° West 356 410 16,900 -2,280 Descending Seattle Center
08:49PM 46.9900 -121.3358 304° West 340 391 14,500 -1,980 Descending Seattle Center
08:50PM 47.0417 -121.4442 305° West 319 367 13,000 -780 Descending Seattle Center
08:51PM 47.0861 -121.5422 304° West 308 354 13,000 -240 Level Seattle Center
08:51PM 47.1039 -121.5789 305° West 306 352 12,700 -900 Descending Seattle Center
08:52PM 47.1344 -121.6489 303° West 317 365 12,100 -840 Descending Seattle Center
08:52PM 47.1519 -121.6858 305° West 317 365 11,900 -1,500 Descending Seattle Center
08:53PM 47.1575 -121.7689 276° West 319 367 10,600 -1,800 Descending Seattle Center
08:53PM 47.1661 -121.8086 288° West 297 342 10,100 -1,680 Descending Seattle Center
08:54PM 47.1767 -121.8786 283° West 281 323 8,900 -1,980 Descending Seattle Center
08:54PM 47.1875 -121.9339 286° West 263 303 7,900 -2,100 Descending Seattle Center
08:55PM 47.1958 -121.9822 284° West 267 307 6,800 -2,400 Descending Seattle Center
08:55PM 47.2067 -122.0344 287° West 259 298 5,500 -2,460 Descending Seattle Center
08:56PM 47.2217 -122.1047 287° West 266 306 4,300 -1,500 Descending Seattle Center
08:56PM 47.2286 -122.1367 288° West 261 300 4,000 -900 Descending Seattle Center
08:57PM 47.2431 -122.1956 290° West 239 275 3,400 -1,020 Descending Seattle Center
08:57PM 47.2511 -122.2156 301° West 220 253 3,100 -420 Descending Seattle Center
08:58PM 47.2769 -122.2683 306° West 219 252 3,000 -180 Descending Seattle Center
08:58PM 47.2950 -122.2925 318° Northwest 207 238 2,900 -720 Descending Seattle Center
08:59PM 47.3242 -122.3094 339° North 199 229 2,300 -1,020 Descending Seattle Center
08:59PM 47.3417 -122.3094 360° North 179 206 2,000 -840 Descending Seattle Center
09:00PM 47.3694 -122.3086 North 163 188 1,500 -720 Descending Seattle Center
09:00PM 47.3858 -122.3081 North 133 153 1,200 -600 Descending Seattle Center
09:01PM 47.4075 -122.3086 359° North 141 162 900 -600 Descending Seattle Center
09:01PM 47.4239 -122.3100 357° North 134 154 600 -540 Descending Seattle Center
09:02PM 47.4475 -122.3092 North 140 161 400 -360 Descending Seattle Center
09:04PM 47.4499 -122.3118 306° West  Level Estimated